Time;durP1;ratioP1;P1;durP2;ratioP2;P2;SDS_P1;SDS_P2;PMS_P1;PMS_P2;Temp;Humidity;BMP_temperature;BMP_pressure;BME280_temperature;BME280_humidity;BME280_pressure;Samples;Min_cycle;Max_cycle;Signal;HPM_P1;HPM_P2
2022/07/27 00:01:14;;;;;;;6.97;1.73;;;;;;;13.87;82.90;101762.91;5070790;28;20227;-71
2022/07/27 00:03:40;;;;;;;5.20;1.67;;;;;;;13.80;83.90;101760.16;5048497;28;20217;-73
2022/07/27 00:06:06;;;;;;;4.10;1.50;;;;;;;13.79;83.32;101767.00;5071991;28;20219;-72
2022/07/27 00:08:32;;;;;;;6.67;1.47;;;;;;;13.76;83.67;101769.50;5070985;28;20181;-73
2022/07/27 00:10:58;;;;;;;5.90;1.57;;;;;;;13.72;83.47;101759.97;5071169;28;20274;-72
2022/07/27 00:13:23;;;;;;;3.57;1.10;;;;;;;13.68;83.87;101762.47;5070974;28;20193;-73
2022/07/27 00:15:49;;;;;;;4.47;1.67;;;;;;;13.66;83.91;101766.69;5069385;28;20220;-72
2022/07/27 00:18:14;;;;;;;7.23;1.50;;;;;;;13.65;83.69;101760.72;5070682;28;20208;-72
2022/07/27 00:20:40;;;;;;;6.77;1.60;;;;;;;13.62;84.25;101763.19;5070599;28;20197;-73
2022/07/27 00:23:06;;;;;;;5.37;1.60;;;;;;;13.59;84.10;101755.44;5070712;28;20295;-72
2022/07/27 00:25:32;;;;;;;3.90;1.30;;;;;;;13.59;83.87;101765.72;5070621;28;20189;-73
2022/07/27 00:27:57;;;;;;;5.30;1.20;;;;;;;13.60;83.86;101756.28;5070368;28;20188;-73
2022/07/27 00:30:24;;;;;;;5.30;1.40;;;;;;;13.59;83.84;101760.59;5070364;28;20219;-71
2022/07/27 00:32:50;;;;;;;7.13;1.83;;;;;;;13.58;83.88;101760.53;5070703;28;20177;-72
2022/07/27 00:35:16;;;;;;;6.30;1.80;;;;;;;13.56;84.30;101759.63;5070638;28;20215;-72
2022/07/27 00:37:41;;;;;;;4.80;1.60;;;;;;;13.52;84.54;101753.56;5078558;28;20250;-73
2022/07/27 00:40:07;;;;;;;6.37;1.57;;;;;;;13.53;84.24;101757.84;5089424;28;20279;-72
2022/07/27 00:42:33;;;;;;;3.43;1.30;;;;;;;13.57;83.75;101759.66;5089233;28;20279;-73
2022/07/27 00:44:58;;;;;;;5.37;1.30;;;;;;;13.56;84.44;101760.50;5090174;28;20195;-70
2022/07/27 00:47:24;;;;;;;5.00;1.50;;;;;;;13.57;84.63;101756.22;5090387;28;20258;-72
2022/07/27 00:49:50;;;;;;;6.10;1.63;;;;;;;13.57;84.50;101761.34;5079633;28;20233;-73
2022/07/27 00:52:16;;;;;;;6.03;1.63;;;;;;;13.58;84.69;101758.81;5069651;28;20263;-73
2022/07/27 00:54:43;;;;;;;3.77;1.57;;;;;;;13.62;84.57;101759.78;5070245;28;20177;-73
2022/07/27 00:57:10;;;;;;;3.13;1.10;;;;;;;13.64;84.64;101755.53;5068137;28;20177;-71
2022/07/27 00:59:36;;;;;;;5.93;1.80;;;;;;;13.65;84.21;101755.56;5069988;28;20274;-72
2022/07/27 01:02:02;;;;;;;5.07;1.47;;;;;;;13.68;83.85;101758.19;5074447;28;20673;-72
2022/07/27 01:04:27;;;;;;;7.80;1.83;;;;;;;13.72;83.63;101751.41;5083496;28;20219;-72
2022/07/27 01:06:53;;;;;;;5.10;1.43;;;;;;;13.73;83.73;101751.44;5090127;28;20192;-70
2022/07/27 01:12:07;;;;;;;5.67;1.77;;;;;;;13.73;83.67;101756.59;5090034;28;20180;-72
2022/07/27 01:14:33;;;;;;;4.90;1.63;;;;;;;13.73;83.51;101754.03;5089423;28;20180;-72
2022/07/27 01:16:59;;;;;;;7.37;1.50;;;;;;;13.77;83.79;101760.09;5088909;28;20613;-72
2022/07/27 01:19:24;;;;;;;9.70;1.90;;;;;;;13.78;83.31;101765.28;5089966;28;20188;-73
2022/07/27 01:21:50;;;;;;;6.27;1.47;;;;;;;13.80;83.30;101765.28;5089870;28;20227;-73
2022/07/27 01:24:15;;;;;;;4.00;1.50;;;;;;;13.81;83.36;101761.91;5089608;28;20216;-72
2022/07/27 01:26:41;;;;;;;7.90;1.57;;;;;;;13.82;84.31;101766.22;5068793;28;20193;-72
2022/07/27 01:29:07;;;;;;;5.63;1.80;;;;;;;13.79;84.87;101756.72;5070177;28;20724;-72
2022/07/27 01:31:32;;;;;;;7.10;1.73;;;;;;;13.79;84.63;101754.16;5058685;28;20234;-72
2022/07/27 01:33:58;;;;;;;7.20;1.83;;;;;;;13.78;84.53;101751.53;5082913;28;20226;-73
2022/07/27 01:36:24;;;;;;;6.90;1.63;;;;;;;13.74;84.84;101754.88;5072477;28;20204;-73
2022/07/27 01:38:49;;;;;;;7.37;1.60;;;;;;;13.76;84.46;101751.50;5068083;28;20220;-71
2022/07/27 01:41:14;;;;;;;4.40;1.60;;;;;;;13.78;84.91;101755.00;5069564;28;20212;-72
2022/07/27 01:43:40;;;;;;;4.47;1.60;;;;;;;13.81;84.14;101751.59;5069190;28;20380;-72
2022/07/27 01:46:06;;;;;;;5.83;1.67;;;;;;;13.82;84.62;101754.22;5069183;28;20193;-72
2022/07/27 01:48:31;;;;;;;3.73;1.60;;;;;;;13.80;84.61;101745.56;5068950;28;20221;-73
2022/07/27 01:50:57;;;;;;;5.43;1.60;;;;;;;13.81;84.41;101743.88;5069480;28;20193;-72
2022/07/27 01:53:23;;;;;;;2.77;1.37;;;;;;;13.82;84.24;101745.63;5069105;28;20687;-73
2022/07/27 01:55:49;;;;;;;8.27;2.10;;;;;;;13.79;84.85;101746.44;5069535;28;20272;-71
2022/07/27 01:58:16;;;;;;;5.70;1.50;;;;;;;13.81;83.92;101746.47;5069227;28;20901;-71
2022/07/27 02:00:41;;;;;;;9.30;1.93;;;;;;;13.82;83.77;101753.34;5069404;28;20712;-72
2022/07/27 02:03:09;;;;;;;7.63;1.70;;;;;;;13.82;84.44;101743.94;5068974;28;20217;-72
2022/07/27 02:05:35;;;;;;;5.77;1.60;;;;;;;13.77;84.92;101745.50;5069558;28;20185;-73
2022/07/27 02:08:02;;;;;;;5.47;1.60;;;;;;;13.80;85.01;101742.13;5069506;28;20235;-71
2022/07/27 02:10:28;;;;;;;3.90;1.90;;;;;;;13.76;85.27;101748.06;5069564;28;20201;-72
2022/07/27 02:12:53;;;;;;;4.50;2.00;;;;;;;13.80;84.65;101743.00;5069305;28;20713;-73
2022/07/27 02:15:21;;;;;;;5.27;1.60;;;;;;;13.78;84.81;101751.53;5069792;28;20185;-73
2022/07/27 02:17:48;;;;;;;3.03;1.40;;;;;;;13.75;85.25;101752.34;5067903;28;20185;-72
2022/07/27 02:20:17;;;;;;;5.83;1.60;;;;;;;13.80;84.71;101755.88;5069296;28;20799;-73
2022/07/27 02:22:44;;;;;;;4.30;1.70;;;;;;;13.84;84.88;101747.38;5069074;28;20189;-73
2022/07/27 02:25:11;;;;;;;5.13;1.33;;;;;;;13.88;85.04;101749.19;5067628;28;20184;-73
2022/07/27 02:27:38;;;;;;;6.50;2.00;;;;;;;13.89;84.89;101738.03;5069098;28;20724;-72
2022/07/27 02:30:04;;;;;;;4.63;1.53;;;;;;;13.88;84.26;101732.84;5069391;28;20308;-73
2022/07/27 02:32:30;;;;;;;6.27;1.40;;;;;;;13.85;83.74;101731.09;5067761;28;20196;-73
2022/07/27 02:34:55;;;;;;;2.43;1.50;;;;;;;13.84;83.49;101719.06;5068038;28;20189;-73
2022/07/27 02:37:21;;;;;;;8.87;2.07;;;;;;;13.84;83.13;101720.75;5068591;28;20196;-71
2022/07/27 02:39:47;;;;;;;6.80;1.67;;;;;;;13.84;82.48;101723.31;5068957;28;20217;-72
2022/07/27 02:42:13;;;;;;;3.90;1.20;;;;;;;13.84;82.62;101726.78;5069162;28;20185;-72
2022/07/27 02:44:38;;;;;;;6.63;1.53;;;;;;;13.84;82.81;101728.47;5074537;28;20246;-72
2022/07/27 02:47:03;;;;;;;4.17;1.50;;;;;;;13.84;82.77;101729.34;5082299;28;20193;-72
2022/07/27 02:49:29;;;;;;;4.57;1.53;;;;;;;13.89;83.19;101730.31;5089128;28;20233;-73
2022/07/27 02:51:55;;;;;;;5.67;1.57;;;;;;;13.93;83.60;101732.13;5089186;28;20204;-73
2022/07/27 02:54:23;;;;;;;5.80;2.07;;;;;;;13.98;83.49;101729.63;5089203;28;20654;-73
2022/07/27 02:56:53;;;;;;;5.73;1.83;;;;;;;13.98;83.25;101724.47;5067718;28;20546;-72
2022/07/27 02:59:19;;;;;;;5.90;1.67;;;;;;;13.87;82.77;101713.09;5068564;28;20701;-72
2022/07/27 03:01:46;;;;;;;5.10;1.33;;;;;;;13.77;83.30;101730.06;5068729;28;20674;-72
2022/07/27 03:04:11;;;;;;;8.20;1.70;;;;;;;13.70;83.09;101729.91;5067212;28;20249;-71
2022/07/27 03:06:37;;;;;;;4.20;1.70;;;;;;;13.64;84.11;101727.22;5068640;28;20552;-72
2022/07/27 03:09:03;;;;;;;4.57;1.40;;;;;;;13.68;83.62;101737.59;5068570;28;20177;-72
2022/07/27 03:11:29;;;;;;;5.03;1.20;;;;;;;13.70;83.27;101737.63;5063450;28;20251;-73
2022/07/27 03:13:54;;;;;;;3.50;1.57;;;;;;;13.69;83.74;101736.78;5067096;28;20185;-72
2022/07/27 03:16:19;;;;;;;7.63;1.80;;;;;;;13.68;83.91;101739.31;5067123;28;20193;-71
2022/07/27 03:18:45;;;;;;;6.03;1.43;;;;;;;13.73;84.02;101738.59;5068789;28;20502;-73
2022/07/27 03:21:10;;;;;;;7.13;1.87;;;;;;;13.74;84.31;101744.56;5068677;28;20235;-72
2022/07/27 03:23:36;;;;;;;3.77;1.40;;;;;;;13.76;83.89;101745.50;5068032;28;20688;-71
2022/07/27 03:26:01;;;;;;;6.13;2.10;;;;;;;13.72;83.94;101747.13;5069769;28;20189;-72
2022/07/27 03:28:27;;;;;;;4.20;1.40;;;;;;;13.76;84.19;101748.06;5071255;28;20204;-72
2022/07/27 03:30:52;;;;;;;6.70;1.70;;;;;;;13.74;84.79;101747.16;5072164;28;20204;-70
2022/07/27 03:33:18;;;;;;;7.50;1.83;;;;;;;13.72;84.38;101754.84;5072406;28;20881;-73
2022/07/27 03:35:43;;;;;;;7.07;1.60;;;;;;;13.73;84.41;101758.28;5054882;28;20212;-73
2022/07/27 03:38:09;;;;;;;4.17;1.47;;;;;;;13.74;84.53;101760.91;5071028;28;20595;-71
2022/07/27 03:40:34;;;;;;;6.80;1.90;;;;;;;13.70;84.23;101761.66;5071892;28;20235;-73
2022/07/27 03:43:00;;;;;;;4.70;1.57;;;;;;;13.70;84.87;101758.22;5071736;28;20251;-73
2022/07/27 03:45:25;;;;;;;8.70;1.77;;;;;;;13.71;84.49;101760.81;5071800;28;20264;-72
2022/07/27 03:47:51;;;;;;;6.17;2.20;;;;;;;13.78;84.54;101764.41;5071612;28;20677;-72
2022/07/27 03:50:18;;;;;;;6.27;2.07;;;;;;;13.74;85.16;101757.44;5080511;28;20236;-73
2022/07/27 03:52:44;;;;;;;7.43;2.10;;;;;;;13.76;85.41;101756.66;5070106;28;20177;-73
2022/07/27 03:55:09;;;;;;;5.20;1.93;;;;;;;13.83;85.00;101765.38;5071677;28;20196;-72
2022/07/27 03:57:35;;;;;;;7.90;1.87;;;;;;;13.83;85.05;101763.69;5071544;28;20219;-73
2022/07/27 04:00:01;;;;;;;5.37;1.50;;;;;;;13.84;84.52;101749.97;5071108;28;20917;-73
2022/07/27 04:02:26;;;;;;;6.53;2.00;;;;;;;13.83;84.88;101760.22;5071559;28;20185;-73
2022/07/27 04:04:51;;;;;;;4.03;1.43;;;;;;;13.90;84.50;101760.38;5071521;28;20225;-72
2022/07/27 04:07:17;;;;;;;5.23;1.63;;;;;;;13.96;84.36;101750.22;5071015;28;20189;-73
2022/07/27 04:09:42;;;;;;;4.93;1.27;;;;;;;13.96;83.49;101760.53;5071329;28;20204;-73
2022/07/27 04:12:08;;;;;;;3.60;1.30;;;;;;;14.03;82.98;101752.06;5070223;28;20181;-72
2022/07/27 04:14:33;;;;;;;6.20;2.10;;;;;;;14.06;83.52;101758.97;5071163;28;20173;-73
2022/07/27 04:16:59;;;;;;;9.07;2.17;;;;;;;14.09;83.47;101752.16;5071050;28;20189;-73
2022/07/27 04:19:24;;;;;;;5.30;1.63;;;;;;;14.10;83.19;101753.94;5071289;28;20258;-73
2022/07/27 04:21:50;;;;;;;4.87;1.47;;;;;;;14.16;83.11;101755.75;5070336;28;20213;-72
2022/07/27 04:24:15;;;;;;;6.23;2.00;;;;;;;14.09;82.74;101752.16;5069691;28;20224;-73
2022/07/27 04:26:41;;;;;;;5.37;1.50;;;;;;;14.06;82.72;101743.53;5069763;28;20709;-73
2022/07/27 04:29:06;;;;;;;4.80;1.60;;;;;;;14.08;82.58;101747.03;5070976;28;20200;-72
2022/07/27 04:31:32;;;;;;;5.40;1.70;;;;;;;14.06;82.24;101748.69;5071012;28;20205;-71
2022/07/27 04:33:58;;;;;;;4.83;1.60;;;;;;;14.04;82.20;101747.78;5066616;28;20857;-73
2022/07/27 04:36:23;;;;;;;5.10;1.50;;;;;;;14.02;81.81;101755.47;5049284;28;20190;-73
2022/07/27 04:38:48;;;;;;;3.93;1.50;;;;;;;14.02;81.59;101752.03;5051046;28;20177;-70
2022/07/27 04:41:14;;;;;;;3.07;1.23;;;;;;;14.01;82.13;101755.44;5050849;28;20213;-73
2022/07/27 04:43:39;;;;;;;6.83;1.80;;;;;;;13.97;82.13;101758.78;5051157;28;20194;-72
2022/07/27 04:46:05;;;;;;;7.93;1.57;;;;;;;13.99;82.61;101762.28;5070745;28;20603;-70
2022/07/27 04:48:32;;;;;;;5.20;1.57;;;;;;;14.01;82.64;101758.91;5070639;28;20185;-72
2022/07/27 04:50:58;;;;;;;7.97;1.53;;;;;;;14.06;82.04;101756.41;5079472;28;20209;-70
2022/07/27 04:53:23;;;;;;;6.00;1.87;;;;;;;14.05;81.83;101760.69;5090987;28;20560;-71
2022/07/27 04:55:49;;;;;;;5.47;1.80;;;;;;;13.98;82.21;101756.25;5090985;28;20184;-72
2022/07/27 04:58:14;;;;;;;6.17;1.60;;;;;;;13.96;82.49;101769.94;5091085;28;20603;-72
2022/07/27 05:00:40;;;;;;;4.07;1.43;;;;;;;14.04;82.63;101763.25;5090852;28;20685;-71
2022/07/27 05:03:07;;;;;;;4.37;1.63;;;;;;;14.08;81.95;101759.91;5090562;28;20725;-70
2022/07/27 05:05:32;;;;;;;3.23;1.40;;;;;;;14.08;82.39;101757.31;5090549;28;20200;-72
2022/07/27 05:07:58;;;;;;;6.87;1.70;;;;;;;14.09;82.26;101765.06;5090393;28;20193;-72
2022/07/27 05:10:24;;;;;;;5.20;1.30;;;;;;;14.04;82.41;101766.66;5090596;28;20200;-72
2022/07/27 05:12:50;;;;;;;7.00;1.63;;;;;;;14.11;81.81;101767.66;5072365;28;20634;-72
2022/07/27 05:15:15;;;;;;;5.20;1.63;;;;;;;14.16;81.90;101768.63;5089060;28;20283;-72
2022/07/27 05:17:41;;;;;;;8.23;1.90;;;;;;;14.22;81.58;101766.22;5090058;28;20226;-72
2022/07/27 05:20:07;;;;;;;5.07;1.33;;;;;;;14.29;81.91;101773.22;5090134;28;20208;-72
2022/07/27 05:22:33;;;;;;;6.57;1.77;;;;;;;14.52;80.44;101777.09;5070135;28;20204;-73
2022/07/27 05:24:58;;;;;;;9.43;1.73;;;;;;;14.53;80.30;101773.66;5069905;28;20232;-72
2022/07/27 05:27:24;;;;;;;7.30;1.60;;;;;;;14.64;80.51;101774.75;5068202;28;20224;-72
2022/07/27 05:29:49;;;;;;;6.53;1.57;;;;;;;14.73;80.06;101773.19;5068538;28;20233;-73
2022/07/27 05:32:15;;;;;;;6.57;1.70;;;;;;;14.92;79.56;101774.38;5069856;28;20177;-72
2022/07/27 05:34:42;;;;;;;7.90;1.80;;;;;;;14.98;79.01;101766.72;5069675;28;20189;-72
2022/07/27 05:37:07;;;;;;;7.90;1.70;;;;;;;15.10;78.48;101772.09;5069529;28;20185;-73
2022/07/27 05:39:33;;;;;;;9.43;1.57;;;;;;;15.15;78.15;101768.72;5069639;28;20192;-72
2022/07/27 05:41:58;;;;;;;6.13;1.70;;;;;;;15.21;78.78;101761.09;5068374;28;20189;-71
2022/07/27 05:44:24;;;;;;;5.73;1.30;;;;;;;15.29;77.73;101771.53;5069576;28;20208;-73
2022/07/27 05:46:49;;;;;;;5.90;1.33;;;;;;;15.31;76.35;101770.72;5068968;28;20189;-72
2022/07/27 05:49:15;;;;;;;9.10;1.50;;;;;;;15.46;77.43;101772.66;5069419;28;20188;-71
2022/07/27 05:51:41;;;;;;;2.87;1.30;;;;;;;15.54;76.60;101777.13;5068125;28;20217;-73
2022/07/27 05:54:06;;;;;;;7.13;1.70;;;;;;;15.58;76.46;101773.75;5078218;28;20964;-73
2022/07/27 05:56:32;;;;;;;11.43;2.27;;;;;;;15.55;75.13;101783.13;5069621;28;20597;-72
2022/07/27 05:58:58;;;;;;;4.77;1.27;;;;;;;15.79;75.40;101781.75;5068334;28;20181;-71
2022/07/27 06:01:23;;;;;;;8.53;1.80;;;;;;;16.11;74.72;101788.19;5069771;28;20227;-73
2022/07/27 06:03:49;;;;;;;4.13;1.30;;;;;;;16.00;73.98;101781.16;5068209;28;20224;-72
2022/07/27 06:08:58;;;;;;;7.10;1.67;;;;;;;16.12;73.87;101789.09;5069423;28;20987;-72
2022/07/27 06:11:24;;;;;;;7.33;1.80;;;;;;;16.31;73.39;101794.47;5069347;28;20299;-72
2022/07/27 06:13:49;;;;;;;5.60;1.70;;;;;;;16.50;73.06;101786.13;5069346;28;20204;-72
2022/07/27 06:16:15;;;;;;;7.77;1.70;;;;;;;16.28;73.24;101788.41;5069280;28;20226;-73
2022/07/27 06:18:41;;;;;;;5.97;1.70;;;;;;;16.26;73.63;101788.38;5069235;28;20181;-71
2022/07/27 06:21:06;;;;;;;10.00;2.00;;;;;;;16.07;74.14;101790.75;5067675;28;20223;-71
2022/07/27 06:23:32;;;;;;;8.90;2.50;;;;;;;16.29;73.13;101788.41;5069179;28;20201;-73
2022/07/27 06:25:58;;;;;;;5.47;1.63;;;;;;;16.31;73.03;101788.44;5069212;28;20581;-73
2022/07/27 06:28:23;;;;;;;9.00;1.87;;;;;;;16.42;73.02;101794.63;5073336;28;20188;-73
2022/07/27 06:30:49;;;;;;;4.60;1.20;;;;;;;16.50;73.30;101803.34;5080979;28;20704;-72
2022/07/27 06:33:14;;;;;;;7.80;2.17;;;;;;;16.53;72.17;101809.41;5089397;28;20206;-71
2022/07/27 06:35:41;;;;;;;4.33;1.77;;;;;;;16.62;71.76;101806.91;5077393;28;20193;-71
2022/07/27 06:38:07;;;;;;;6.50;1.30;;;;;;;16.81;72.36;101802.81;5068718;28;20193;-72
2022/07/27 06:40:34;;;;;;;10.97;2.00;;;;;;;16.78;71.35;101806.22;5069057;28;20205;-72
2022/07/27 06:42:59;;;;;;;4.97;1.30;;;;;;;16.80;70.86;101798.50;5069213;28;20604;-73
2022/07/27 06:45:25;;;;;;;6.10;1.70;;;;;;;16.85;70.43;101804.56;5061946;28;20276;-72
2022/07/27 06:47:51;;;;;;;8.03;1.70;;;;;;;16.75;69.84;101810.47;5067301;28;20189;-72
2022/07/27 06:50:20;;;;;;;3.13;1.27;;;;;;;16.92;70.18;101806.34;5068783;28;20284;-73
2022/07/27 06:52:47;;;;;;;7.23;1.20;;;;;;;17.09;70.35;101813.38;5068595;28;20193;-72
2022/07/27 06:55:12;;;;;;;3.80;1.60;;;;;;;17.14;69.59;101813.44;5069028;28;20239;-73
2022/07/27 06:57:38;;;;;;;8.23;1.47;;;;;;;17.20;68.97;101806.59;5068852;28;20185;-73
2022/07/27 07:00:05;;;;;;;7.27;2.23;;;;;;;17.16;67.36;101812.59;5072489;28;20201;-73
2022/07/27 07:02:31;;;;;;;6.67;1.50;;;;;;;17.28;66.99;101817.88;5072767;28;20193;-72
2022/07/27 07:04:57;;;;;;;10.30;1.83;;;;;;;17.45;66.38;101815.47;5066528;28;20221;-73
2022/07/27 07:07:23;;;;;;;4.50;1.43;;;;;;;17.82;64.77;101812.25;5072425;28;20189;-73
2022/07/27 07:09:49;;;;;;;9.63;1.73;;;;;;;17.92;64.56;101817.44;5072744;28;20257;-73
2022/07/27 07:12:14;;;;;;;7.07;1.50;;;;;;;17.84;65.19;101820.88;5071385;28;20185;-70
2022/07/27 07:14:40;;;;;;;3.87;1.27;;;;;;;17.67;64.66;101830.25;5071342;28;20181;-73
2022/07/27 07:17:05;;;;;;;6.70;1.90;;;;;;;17.56;64.82;101830.22;5072395;28;20623;-72
2022/07/27 07:19:31;;;;;;;8.20;2.10;;;;;;;17.72;64.36;101820.78;5072379;28;20690;-72
2022/07/27 07:21:56;;;;;;;2.67;1.40;;;;;;;17.84;64.34;101832.13;5072436;28;20189;-72
2022/07/27 07:24:22;;;;;;;5.23;1.60;;;;;;;17.90;64.86;101834.75;5072299;28;20320;-73
2022/07/27 07:26:47;;;;;;;6.17;1.27;;;;;;;17.76;64.53;101838.97;5071046;28;20208;-72
2022/07/27 07:29:13;;;;;;;4.37;1.47;;;;;;;18.16;63.90;101837.47;5080404;28;20185;-72
2022/07/27 07:31:38;;;;;;;9.40;1.73;;;;;;;18.28;62.82;101833.19;5087154;28;20295;-73
2022/07/27 07:34:04;;;;;;;4.87;1.43;;;;;;;18.07;62.21;101835.69;5085498;28;20181;-72
2022/07/27 07:36:29;;;;;;;9.50;1.30;;;;;;;18.04;63.36;101839.97;5071950;28;20200;-73
2022/07/27 07:38:55;;;;;;;4.23;1.17;;;;;;;17.78;63.50;101844.16;5059062;28;20196;-71
2022/07/27 07:41:23;;;;;;;6.73;1.70;;;;;;;17.52;64.44;101840.53;5071868;28;20209;-72
2022/07/27 07:43:49;;;;;;;6.97;1.97;;;;;;;17.23;65.54;101855.78;5061752;28;20214;-73
2022/07/27 07:46:14;;;;;;;5.77;1.70;;;;;;;17.19;66.46;101843.72;5051692;28;20185;-71
2022/07/27 07:48:42;;;;;;;7.70;1.60;;;;;;;17.31;66.38;101841.19;5051792;28;20557;-72
2022/07/27 07:51:08;;;;;;;4.90;1.50;;;;;;;17.57;66.26;101838.84;5051489;28;20280;-73
2022/07/27 07:53:34;;;;;;;6.27;1.30;;;;;;;17.76;63.52;101840.69;5051939;28;20604;-71
2022/07/27 07:55:59;;;;;;;7.17;1.83;;;;;;;18.02;62.94;101846.91;5061729;28;20271;-72
2022/07/27 07:58:26;;;;;;;5.30;1.57;;;;;;;18.23;63.47;101847.00;5071834;28;20255;-73
2022/07/27 08:00:51;;;;;;;4.50;1.40;;;;;;;18.21;64.20;101843.53;5071580;28;20586;-72
2022/07/27 08:03:17;;;;;;;6.17;1.60;;;;;;;18.63;63.71;101835.91;5071338;28;20200;-73
2022/07/27 08:05:43;;;;;;;5.67;1.50;;;;;;;18.56;61.96;101842.81;5071625;28;20185;-73
2022/07/27 08:08:09;;;;;;;5.03;1.47;;;;;;;18.74;60.52;101837.69;5070257;28;20185;-73
2022/07/27 08:10:34;;;;;;;5.67;1.20;;;;;;;19.07;60.58;101831.69;5070568;28;20204;-72
2022/07/27 08:13:00;;;;;;;8.90;1.70;;;;;;;18.97;59.87;101837.75;5069898;28;20262;-72
2022/07/27 08:15:26;;;;;;;4.33;1.30;;;;;;;18.89;60.25;101840.28;5071064;28;20441;-73
2022/07/27 08:17:52;;;;;;;7.40;1.60;;;;;;;19.39;59.13;101832.59;5069833;28;20213;-73
2022/07/27 08:20:18;;;;;;;5.23;1.50;;;;;;;19.58;58.77;101829.09;5071236;28;20309;-73
2022/07/27 08:22:44;;;;;;;9.97;1.57;;;;;;;19.68;58.61;101829.09;5071483;28;20235;-73
2022/07/27 08:25:10;;;;;;;3.97;1.30;;;;;;;19.94;57.34;101836.81;5071140;28;20201;-73
2022/07/27 08:27:37;;;;;;;3.97;1.27;;;;;;;20.09;57.30;101829.00;5069344;28;20207;-73
2022/07/27 08:30:05;;;;;;;5.97;1.23;;;;;;;20.30;55.77;101829.78;5071052;28;20627;-73
2022/07/27 08:32:30;;;;;;;7.10;1.97;;;;;;;20.45;54.63;101826.25;5079080;28;20185;-73
2022/07/27 08:34:56;;;;;;;4.67;1.73;;;;;;;20.29;53.68;101830.66;5075052;28;20213;-73
2022/07/27 08:37:21;;;;;;;6.13;1.30;;;;;;;20.64;53.72;101827.88;5071128;28;20181;-72
2022/07/27 08:39:47;;;;;;;8.00;1.53;;;;;;;20.47;52.85;101822.75;5071211;28;20551;-73
2022/07/27 08:42:12;;;;;;;4.17;1.10;;;;;;;21.01;52.96;101829.38;5071312;28;20268;-72
2022/07/27 08:44:40;;;;;;;4.53;1.23;;;;;;;21.21;50.56;101811.84;5071212;28;20205;-71
2022/07/27 08:47:08;;;;;;;4.30;1.50;;;;;;;21.77;49.71;101810.47;5069869;28;20186;-72
2022/07/27 08:49:34;;;;;;;4.80;1.17;;;;;;;21.52;48.46;101819.38;5067755;28;20185;-72
2022/07/27 08:52:01;;;;;;;4.07;1.50;;;;;;;21.66;48.89;101821.84;5069288;28;20181;-71
2022/07/27 08:54:27;;;;;;;5.13;1.63;;;;;;;20.95;49.11;101819.88;5085194;28;20177;-72
2022/07/27 08:56:53;;;;;;;5.10;1.40;;;;;;;20.58;50.44;101820.94;5069481;28;20853;-72
2022/07/27 08:59:18;;;;;;;7.30;1.43;;;;;;;20.22;51.85;101828.94;5068338;28;20247;-73
2022/07/27 09:01:44;;;;;;;3.50;1.50;;;;;;;20.13;52.04;101825.53;5068585;28;20259;-71
2022/07/27 09:04:09;;;;;;;5.03;1.63;;;;;;;20.05;51.88;101833.31;5070354;28;20674;-73
2022/07/27 09:06:40;;;;;;;5.27;1.43;;;;;;;19.90;52.47;101835.09;5069902;28;20235;-73
2022/07/27 09:09:05;;;;;;;4.27;1.30;;;;;;;19.84;53.01;101835.97;5069931;28;20185;-71
2022/07/27 09:11:31;;;;;;;4.33;1.57;;;;;;;19.74;53.31;101828.19;5070061;28;20286;-73
2022/07/27 09:14:02;;;;;;;3.47;1.60;;;;;;;19.70;53.45;101836.84;5069124;28;20208;-72
2022/07/27 09:16:30;;;;;;;5.83;1.60;;;;;;;19.72;53.77;101843.78;5069431;28;20536;-73
2022/07/27 09:19:04;;;;;;;6.80;1.40;;;;;;;19.64;53.58;101842.94;5069898;28;20224;-73
2022/07/27 09:21:31;;;;;;;4.70;1.60;;;;;;;19.74;52.92;101843.78;5069649;28;20200;-73
2022/07/27 09:24:14;;;;;;;6.63;1.40;;;;;;;20.15;53.64;101841.97;5069661;28;20224;-73
2022/07/27 09:26:40;;;;;;;6.07;1.47;;;;;;;20.23;53.04;101845.41;5069429;28;20263;-74
2022/07/27 09:29:09;;;;;;;5.57;1.60;;;;;;;20.59;51.53;101837.44;5070083;28;20188;-73
2022/07/27 09:31:42;;;;;;;4.73;1.63;;;;;;;20.93;52.04;101841.59;5069896;28;20292;-74
2022/07/27 09:34:09;;;;;;;6.43;1.77;;;;;;;20.86;51.74;101832.06;5069219;28;20181;-74
2022/07/27 09:36:49;;;;;;;7.30;2.10;;;;;;;20.67;52.16;101846.06;5085529;28;20185;-74
2022/07/27 09:39:21;;;;;;;5.67;1.77;;;;;;;20.08;52.97;101835.09;5069366;28;20614;-73
2022/07/27 09:41:48;;;;;;;5.00;1.80;;;;;;;19.88;54.09;101844.63;5068039;28;20188;-73
2022/07/27 09:44:14;;;;;;;6.47;1.77;;;;;;;19.75;53.95;101848.09;5069487;28;20205;-71
2022/07/27 09:46:43;;;;;;;8.20;1.77;;;;;;;19.86;53.16;101860.22;5051329;28;20576;-72
2022/07/27 09:49:32;;;;;;;4.57;1.63;;;;;;;20.49;50.41;101844.44;5069395;28;20184;-73
2022/07/27 09:51:59;;;;;;;5.47;1.50;;;;;;;20.91;49.74;101848.56;5049311;28;20261;-73
2022/07/27 09:54:25;;;;;;;6.33;1.80;;;;;;;21.77;47.89;101830.44;5056676;28;20558;-73
2022/07/27 09:57:01;;;;;;;6.80;1.40;;;;;;;21.27;48.22;101830.91;5069411;28;20181;-71
2022/07/27 09:59:28;;;;;;;7.13;1.70;;;;;;;20.94;48.07;101833.78;5069409;28;20180;-73
2022/07/27 10:01:55;;;;;;;7.50;1.40;;;;;;;20.76;47.76;101832.97;5068965;28;20220;-73
2022/07/27 10:04:22;;;;;;;4.13;1.33;;;;;;;21.07;48.05;101840.63;5068064;28;20644;-73
2022/07/27 10:06:48;;;;;;;4.87;1.60;;;;;;;21.87;47.63;101832.06;5068873;28;20197;-71
2022/07/27 10:09:13;;;;;;;3.43;1.50;;;;;;;22.28;45.13;101830.72;5067557;28;20196;-74
2022/07/27 10:11:39;;;;;;;2.73;1.30;;;;;;;22.52;43.41;101823.50;5069067;28;20193;-73
2022/07/27 10:14:05;;;;;;;4.70;1.90;;;;;;;22.09;44.26;101826.63;5069352;28;20699;-72
2022/07/27 10:16:32;;;;;;;3.77;1.63;;;;;;;22.48;42.38;101819.19;5069120;28;20193;-72
2022/07/27 10:18:57;;;;;;;4.23;1.53;;;;;;;22.91;42.04;101820.28;5067587;28;20192;-74
2022/07/27 10:21:23;;;;;;;7.40;1.50;;;;;;;22.34;40.78;101821.97;5069307;28;20639;-73
2022/07/27 10:23:56;;;;;;;3.23;1.30;;;;;;;22.06;41.84;101815.38;5068784;28;20201;-73
2022/07/27 10:26:25;;;;;;;5.83;1.40;;;;;;;22.04;42.01;101838.84;5083610;28;20226;-73
2022/07/27 10:29:00;;;;;;;5.13;1.20;;;;;;;21.84;43.28;101835.59;5069195;28;20177;-73
2022/07/27 10:31:26;;;;;;;4.90;1.33;;;;;;;21.69;42.66;101837.50;5067828;28;20937;-73
2022/07/27 10:33:54;;;;;;;4.27;1.53;;;;;;;21.70;43.39;101834.88;5068955;28;20181;-72
2022/07/27 10:36:23;;;;;;;5.63;1.70;;;;;;;21.74;42.67;101833.97;5088803;28;20203;-73
2022/07/27 10:38:57;;;;;;;3.73;1.20;;;;;;;21.71;43.30;101830.53;5065570;28;20242;-74
2022/07/27 10:41:26;;;;;;;6.53;1.77;;;;;;;22.81;42.64;101831.75;5069104;28;20209;-73
2022/07/27 10:44:20;;;;;;;6.60;1.50;;;;;;;23.07;40.98;101827.00;5072127;28;20216;-71
2022/07/27 10:47:00;;;;;;;4.23;1.27;;;;;;;22.30;43.24;101822.88;5074280;28;20192;-73
2022/07/27 10:49:31;;;;;;;4.63;1.30;;;;;;;22.03;43.24;101844.94;5064502;28;20200;-73
2022/07/27 10:51:59;;;;;;;6.53;1.60;;;;;;;22.14;43.45;101837.88;5071371;28;20223;-73
2022/07/27 10:54:31;;;;;;;2.63;1.30;;;;;;;22.36;43.50;101830.63;5067060;28;20528;-72
2022/07/27 10:57:00;;;;;;;5.20;1.40;;;;;;;22.30;43.34;101838.53;5077448;28;20189;-72
2022/07/27 10:59:38;;;;;;;7.30;1.50;;;;;;;21.98;45.05;101835.44;5059111;28;20193;-73
2022/07/27 11:02:17;;;;;;;3.20;1.50;;;;;;;21.66;44.42;101850.53;5072666;28;20197;-74
2022/07/27 11:04:51;;;;;;;5.50;1.40;;;;;;;21.65;44.46;101843.59;5071992;28;20224;-73
2022/07/27 11:07:18;;;;;;;4.93;1.47;;;;;;;22.13;45.49;101850.94;5073144;28;20272;-73
2022/07/27 11:09:44;;;;;;;7.87;1.30;;;;;;;22.53;44.91;101846.09;5073834;28;20201;-72
2022/07/27 11:12:12;;;;;;;4.57;1.70;;;;;;;23.17;44.02;101837.31;5078165;28;20192;-72
2022/07/27 11:14:48;;;;;;;5.47;1.70;;;;;;;23.25;44.63;101839.81;5076368;28;20200;-72
2022/07/27 11:17:20;;;;;;;7.10;1.73;;;;;;;23.51;43.43;101835.00;5071325;28;20200;-72
2022/07/27 11:20:00;;;;;;;7.63;1.87;;;;;;;23.53;43.17;101828.00;5072709;28;20251;-72
2022/07/27 11:22:37;;;;;;;4.63;1.30;;;;;;;22.96;43.53;101844.59;5088076;28;20205;-72
2022/07/27 11:25:04;;;;;;;7.50;1.77;;;;;;;22.69;43.46;101842.41;5070755;28;20287;-72
2022/07/27 11:27:29;;;;;;;4.47;1.40;;;;;;;22.25;43.31;101843.81;5071962;28;20196;-72